sensor_id;sensor_type;location;lat;lon;timestamp;pressure;altitude;pressure_sealevel;temperature;humidity
13011;BME280;6786;57.632;11.962;2023-04-30T00:00:45;100922.22;;;19.00;39.37
13011;BME280;6786;57.632;11.962;2023-04-30T00:03:13;100928.41;;;19.00;39.33
13011;BME280;6786;57.632;11.962;2023-04-30T00:05:41;100928.53;;;18.99;39.32
13011;BME280;6786;57.632;11.962;2023-04-30T00:08:09;100928.41;;;19.00;39.37
13011;BME280;6786;57.632;11.962;2023-04-30T00:10:37;100932.94;;;19.00;39.30
13011;BME280;6786;57.632;11.962;2023-04-30T00:13:05;100922.00;;;18.92;39.31
13011;BME280;6786;57.632;11.962;2023-04-30T00:15:35;100941.94;;;18.99;39.23
13011;BME280;6786;57.632;11.962;2023-04-30T00:18:03;100933.88;;;18.99;39.21
13011;BME280;6786;57.632;11.962;2023-04-30T00:20:32;100938.28;;;19.00;39.21
13011;BME280;6786;57.632;11.962;2023-04-30T00:23:01;100939.97;;;19.01;39.21
13011;BME280;6786;57.632;11.962;2023-04-30T00:25:29;100938.28;;;19.00;39.20
13011;BME280;6786;57.632;11.962;2023-04-30T00:27:57;100945.34;;;19.01;39.22
13011;BME280;6786;57.632;11.962;2023-04-30T00:30:25;100950.81;;;18.99;39.04
13011;BME280;6786;57.632;11.962;2023-04-30T00:32:54;100925.81;;;18.89;39.30
13011;BME280;6786;57.632;11.962;2023-04-30T00:35:23;100950.69;;;19.01;39.24
13011;BME280;6786;57.632;11.962;2023-04-30T00:37:51;100960.41;;;19.02;39.22
13011;BME280;6786;57.632;11.962;2023-04-30T00:40:19;100961.41;;;19.01;39.07
13011;BME280;6786;57.632;11.962;2023-04-30T00:42:47;100948.00;;;19.01;39.13
13011;BME280;6786;57.632;11.962;2023-04-30T00:45:18;100965.06;;;19.00;39.14
13011;BME280;6786;57.632;11.962;2023-04-30T00:47:47;100956.03;;;19.01;39.26
13011;BME280;6786;57.632;11.962;2023-04-30T00:50:18;100959.72;;;19.00;39.22
13011;BME280;6786;57.632;11.962;2023-04-30T00:52:46;100966.75;;;19.01;39.12
13011;BME280;6786;57.632;11.962;2023-04-30T00:55:14;100958.72;;;19.01;39.20
13011;BME280;6786;57.632;11.962;2023-04-30T00:57:43;100964.09;;;19.01;39.04
13011;BME280;6786;57.632;11.962;2023-04-30T01:00:12;100959.72;;;19.00;39.01
13011;BME280;6786;57.632;11.962;2023-04-30T01:02:41;100961.41;;;19.01;39.05
13011;BME280;6786;57.632;11.962;2023-04-30T01:05:10;100959.72;;;19.00;39.02
13011;BME280;6786;57.632;11.962;2023-04-30T01:07:39;100960.53;;;19.00;39.04
13011;BME280;6786;57.632;11.962;2023-04-30T01:10:12;100966.75;;;19.01;39.08
13011;BME280;6786;57.632;11.962;2023-04-30T01:12:47;100970.44;;;19.00;38.95
13011;BME280;6786;57.632;11.962;2023-04-30T01:15:22;100975.78;;;19.00;39.08
13011;BME280;6786;57.632;11.962;2023-04-30T01:17:55;100970.44;;;19.00;39.03
13011;BME280;6786;57.632;11.962;2023-04-30T01:20:27;100972.38;;;18.98;38.98
13011;BME280;6786;57.632;11.962;2023-04-30T01:23:06;100981.16;;;19.00;39.02
13011;BME280;6786;57.632;11.962;2023-04-30T01:25:59;100984.78;;;18.99;38.62
13011;BME280;6786;57.632;11.962;2023-04-30T01:28:37;100979.44;;;18.99;39.00
13011;BME280;6786;57.632;11.962;2023-04-30T01:31:11;100995.50;;;18.99;38.84
13011;BME280;6786;57.632;11.962;2023-04-30T01:33:40;100988.44;;;18.98;39.09
13011;BME280;6786;57.632;11.962;2023-04-30T01:36:30;100995.50;;;18.99;38.59
13011;BME280;6786;57.632;11.962;2023-04-30T01:39:09;100995.50;;;18.99;39.02
13011;BME280;6786;57.632;11.962;2023-04-30T01:41:49;100999.16;;;18.98;38.85
13011;BME280;6786;57.632;11.962;2023-04-30T01:44:31;101001.72;;;18.99;38.89
13011;BME280;6786;57.632;11.962;2023-04-30T01:47:08;101006.22;;;18.99;38.94
13011;BME280;6786;57.632;11.962;2023-04-30T01:49:46;101000.03;;;18.98;38.96
13011;BME280;6786;57.632;11.962;2023-04-30T01:52:26;101008.88;;;18.99;38.94
13011;BME280;6786;57.632;11.962;2023-04-30T01:55:00;101000.16;;;18.97;38.99
13011;BME280;6786;57.632;11.962;2023-04-30T01:57:32;101000.97;;;18.97;39.00
13011;BME280;6786;57.632;11.962;2023-04-30T02:00:04;101009.00;;;18.97;39.00
13011;BME280;6786;57.632;11.962;2023-04-30T02:02:34;101008.88;;;18.99;38.91
13011;BME280;6786;57.632;11.962;2023-04-30T02:05:02;101013.53;;;18.97;38.96
13011;BME280;6786;57.632;11.962;2023-04-30T02:07:36;101006.34;;;18.97;38.93
13011;BME280;6786;57.632;11.962;2023-04-30T02:10:07;101018.91;;;18.97;38.94
13011;BME280;6786;57.632;11.962;2023-04-30T02:12:35;101010.75;;;18.98;38.82
13011;BME280;6786;57.632;11.962;2023-04-30T02:15:06;101016.94;;;18.99;38.65
13011;BME280;6786;57.632;11.962;2023-04-30T02:17:34;101016.94;;;18.99;38.80
13011;BME280;6786;57.632;11.962;2023-04-30T02:20:03;101022.28;;;18.99;38.91
13011;BME280;6786;57.632;11.962;2023-04-30T02:22:31;101024.25;;;18.97;38.89
13011;BME280;6786;57.632;11.962;2023-04-30T02:24:59;101024.97;;;18.99;38.96
13011;BME280;6786;57.632;11.962;2023-04-30T02:27:29;101027.63;;;18.99;38.84
13011;BME280;6786;57.632;11.962;2023-04-30T02:29:58;101024.97;;;18.99;38.81
13011;BME280;6786;57.632;11.962;2023-04-30T02:32:27;101032.16;;;18.98;38.96
13011;BME280;6786;57.632;11.962;2023-04-30T02:34:56;101038.34;;;18.99;38.87
13011;BME280;6786;57.632;11.962;2023-04-30T02:37:24;101036.66;;;18.98;38.95
13011;BME280;6786;57.632;11.962;2023-04-30T02:39:52;101038.34;;;18.99;38.87
13011;BME280;6786;57.632;11.962;2023-04-30T02:42:21;101038.47;;;18.97;38.84
13011;BME280;6786;57.632;11.962;2023-04-30T02:44:49;101035.69;;;18.99;38.72
13011;BME280;6786;57.632;11.962;2023-04-30T02:47:17;101034.13;;;18.96;38.80
13011;BME280;6786;57.632;11.962;2023-04-30T02:49:46;101033.00;;;18.99;38.76
13011;BME280;6786;57.632;11.962;2023-04-30T02:52:14;101036.53;;;18.99;38.91
13011;BME280;6786;57.632;11.962;2023-04-30T02:54:42;101034.97;;;18.97;38.75
13011;BME280;6786;57.632;11.962;2023-04-30T02:57:10;101024.25;;;18.97;38.87
13011;BME280;6786;57.632;11.962;2023-04-30T02:59:38;101045.44;;;19.00;38.78
13011;BME280;6786;57.632;11.962;2023-04-30T03:02:11;101038.34;;;18.99;38.74
13011;BME280;6786;57.632;11.962;2023-04-30T03:04:39;101045.44;;;19.00;38.79
13011;BME280;6786;57.632;11.962;2023-04-30T03:07:09;101050.78;;;19.00;38.76
13011;BME280;6786;57.632;11.962;2023-04-30T03:09:37;101041.03;;;18.99;38.70
13011;BME280;6786;57.632;11.962;2023-04-30T03:12:05;101036.66;;;18.98;38.79
13011;BME280;6786;57.632;11.962;2023-04-30T03:14:33;101045.56;;;18.98;38.71
13011;BME280;6786;57.632;11.962;2023-04-30T03:17:01;101048.25;;;18.98;38.77
13011;BME280;6786;57.632;11.962;2023-04-30T03:19:30;101045.56;;;18.98;38.74
13011;BME280;6786;57.632;11.962;2023-04-30T03:21:58;101041.16;;;18.97;38.73
13011;BME280;6786;57.632;11.962;2023-04-30T03:24:28;101038.34;;;18.99;38.71
13011;BME280;6786;57.632;11.962;2023-04-30T03:26:56;101047.38;;;18.98;38.69
13011;BME280;6786;57.632;11.962;2023-04-30T03:29:24;101059.78;;;18.99;38.64
13011;BME280;6786;57.632;11.962;2023-04-30T03:31:52;101060.66;;;18.99;38.70
13011;BME280;6786;57.632;11.962;2023-04-30T03:34:21;101065.13;;;18.99;38.69
13011;BME280;6786;57.632;11.962;2023-04-30T03:36:49;101054.94;;;18.93;38.58
13011;BME280;6786;57.632;11.962;2023-04-30T03:39:17;101065.13;;;18.99;38.67
13011;BME280;6786;57.632;11.962;2023-04-30T03:41:46;101063.94;;;18.92;38.70
13011;BME280;6786;57.632;11.962;2023-04-30T03:44:14;101070.50;;;18.99;38.61
13011;BME280;6786;57.632;11.962;2023-04-30T03:46:42;101075.84;;;18.99;38.65
13011;BME280;6786;57.632;11.962;2023-04-30T03:49:11;101075.84;;;18.99;38.58
13011;BME280;6786;57.632;11.962;2023-04-30T03:51:39;101083.88;;;18.99;38.67
13011;BME280;6786;57.632;11.962;2023-04-30T03:54:07;101086.56;;;18.99;38.66
13011;BME280;6786;57.632;11.962;2023-04-30T03:56:36;101045.47;;;18.78;38.59
13011;BME280;6786;57.632;11.962;2023-04-30T03:59:06;101080.38;;;18.98;38.69
13011;BME280;6786;57.632;11.962;2023-04-30T04:01:34;101082.31;;;18.96;38.55
13011;BME280;6786;57.632;11.962;2023-04-30T04:04:02;101089.50;;;18.96;38.68
13011;BME280;6786;57.632;11.962;2023-04-30T04:06:30;101097.28;;;18.99;38.73
13011;BME280;6786;57.632;11.962;2023-04-30T04:08:59;101093.66;;;19.00;38.53
13011;BME280;6786;57.632;11.962;2023-04-30T04:11:27;101102.66;;;18.99;38.61
13011;BME280;6786;57.632;11.962;2023-04-30T04:13:55;101094.16;;;18.94;38.54
13011;BME280;6786;57.632;11.962;2023-04-30T04:16:24;101102.66;;;18.99;38.47
13011;BME280;6786;57.632;11.962;2023-04-30T04:18:53;101095.59;;;18.98;38.50
13011;BME280;6786;57.632;11.962;2023-04-30T04:21:22;101099.25;;;18.97;38.51
13011;BME280;6786;57.632;11.962;2023-04-30T04:23:50;101102.91;;;18.96;38.45
13011;BME280;6786;57.632;11.962;2023-04-30T04:26:18;101097.53;;;18.96;38.50
13011;BME280;6786;57.632;11.962;2023-04-30T04:28:47;101099.25;;;18.97;38.55
13011;BME280;6786;57.632;11.962;2023-04-30T04:31:15;101104.63;;;18.97;38.54
13011;BME280;6786;57.632;11.962;2023-04-30T04:33:45;101112.53;;;18.98;38.56
13011;BME280;6786;57.632;11.962;2023-04-30T04:36:13;101117.03;;;18.98;38.48
13011;BME280;6786;57.632;11.962;2023-04-30T04:38:41;101109.97;;;18.97;38.47
13011;BME280;6786;57.632;11.962;2023-04-30T04:41:10;101107.41;;;18.95;38.48
13011;BME280;6786;57.632;11.962;2023-04-30T04:43:38;101124.06;;;18.99;38.53
13011;BME280;6786;57.632;11.962;2023-04-30T04:46:06;101112.66;;;18.97;38.57
13011;BME280;6786;57.632;11.962;2023-04-30T04:48:36;101110.94;;;18.96;38.54
13011;BME280;6786;57.632;11.962;2023-04-30T04:51:06;101115.34;;;18.97;38.53
13011;BME280;6786;57.632;11.962;2023-04-30T04:53:34;101117.03;;;18.98;38.50
13011;BME280;6786;57.632;11.962;2023-04-30T04:56:03;101136.75;;;18.97;38.46
13011;BME280;6786;57.632;11.962;2023-04-30T04:58:31;101131.41;;;18.97;38.50
13011;BME280;6786;57.632;11.962;2023-04-30T05:00:59;101142.13;;;18.97;38.42
13011;BME280;6786;57.632;11.962;2023-04-30T05:03:27;101126.78;;;18.88;38.53
13011;BME280;6786;57.632;11.962;2023-04-30T05:05:56;101142.13;;;18.97;38.49
13011;BME280;6786;57.632;11.962;2023-04-30T05:08:25;101144.78;;;18.97;38.42
13011;BME280;6786;57.632;11.962;2023-04-30T05:10:54;101151.84;;;18.98;38.45
13011;BME280;6786;57.632;11.962;2023-04-30T05:13:22;101154.53;;;18.98;38.37
13011;BME280;6786;57.632;11.962;2023-04-30T05:15:51;101147.47;;;18.97;38.36
13011;BME280;6786;57.632;11.962;2023-04-30T05:18:20;101151.09;;;18.96;38.37
13011;BME280;6786;57.632;11.962;2023-04-30T05:20:48;101152.84;;;18.97;38.32
13011;BME280;6786;57.632;11.962;2023-04-30T05:23:16;101159.16;;;18.96;38.38
13011;BME280;6786;57.632;11.962;2023-04-30T05:25:50;101156.47;;;18.96;38.38
13011;BME280;6786;57.632;11.962;2023-04-30T05:28:18;101158.19;;;18.97;38.47
13011;BME280;6786;57.632;11.962;2023-04-30T05:30:46;101161.81;;;18.96;38.37
13011;BME280;6786;57.632;11.962;2023-04-30T05:33:15;101172.53;;;18.96;38.45
13011;BME280;6786;57.632;11.962;2023-04-30T05:35:43;101164.50;;;18.96;38.31
13011;BME280;6786;57.632;11.962;2023-04-30T05:38:11;101172.53;;;18.96;38.36
13011;BME280;6786;57.632;11.962;2023-04-30T05:40:39;101173.41;;;18.96;38.39
13011;BME280;6786;57.632;11.962;2023-04-30T05:43:09;101172.78;;;18.93;38.24
13011;BME280;6786;57.632;11.962;2023-04-30T05:45:37;101179.63;;;18.97;38.28
13011;BME280;6786;57.632;11.962;2023-04-30T05:48:05;101179.63;;;18.97;38.32
13011;BME280;6786;57.632;11.962;2023-04-30T05:50:33;101176.06;;;18.96;38.33
13011;BME280;6786;57.632;11.962;2023-04-30T05:53:02;101179.63;;;18.97;38.37
13011;BME280;6786;57.632;11.962;2023-04-30T05:55:30;101183.13;;;18.97;38.24
13011;BME280;6786;57.632;11.962;2023-04-30T05:57:58;101192.03;;;18.98;38.42
13011;BME280;6786;57.632;11.962;2023-04-30T06:00:27;101201.06;;;18.97;38.30
13011;BME280;6786;57.632;11.962;2023-04-30T06:02:56;101191.28;;;18.96;38.21
13011;BME280;6786;57.632;11.962;2023-04-30T06:05:24;101196.66;;;18.96;38.28
13011;BME280;6786;57.632;11.962;2023-04-30T06:07:52;101194.81;;;18.96;38.37
13011;BME280;6786;57.632;11.962;2023-04-30T06:10:20;101199.31;;;18.96;38.26
13011;BME280;6786;57.632;11.962;2023-04-30T06:12:48;101204.69;;;18.96;38.20
13011;BME280;6786;57.632;11.962;2023-04-30T06:15:17;101204.69;;;18.96;38.25
13011;BME280;6786;57.632;11.962;2023-04-30T06:17:46;101206.41;;;18.97;38.33
13011;BME280;6786;57.632;11.962;2023-04-30T06:20:14;101200.19;;;18.96;38.15
13011;BME280;6786;57.632;11.962;2023-04-30T06:22:43;101215.41;;;18.96;38.35
13011;BME280;6786;57.632;11.962;2023-04-30T06:25:11;101212.72;;;18.96;38.23
13011;BME280;6786;57.632;11.962;2023-04-30T06:27:39;101213.56;;;18.96;38.27
13011;BME280;6786;57.632;11.962;2023-04-30T06:30:08;101221.63;;;18.96;38.25
13011;BME280;6786;57.632;11.962;2023-04-30T06:32:36;101215.41;;;18.96;38.29
13011;BME280;6786;57.632;11.962;2023-04-30T06:35:06;101216.25;;;18.96;38.22
13011;BME280;6786;57.632;11.962;2023-04-30T06:37:35;101221.63;;;18.96;38.09
13011;BME280;6786;57.632;11.962;2023-04-30T06:40:04;101215.88;;;18.90;38.25
13011;BME280;6786;57.632;11.962;2023-04-30T06:42:33;101215.41;;;18.96;38.11
13011;BME280;6786;57.632;11.962;2023-04-30T06:45:01;101220.75;;;18.96;37.96
13011;BME280;6786;57.632;11.962;2023-04-30T06:47:32;101220.75;;;18.96;38.10
13011;BME280;6786;57.632;11.962;2023-04-30T06:50:02;101227.84;;;18.97;38.08
13011;BME280;6786;57.632;11.962;2023-04-30T06:52:32;101220.75;;;18.96;38.03
13011;BME280;6786;57.632;11.962;2023-04-30T06:55:00;101226.09;;;18.96;38.07
13011;BME280;6786;57.632;11.962;2023-04-30T06:57:29;101227.84;;;18.97;38.13
13011;BME280;6786;57.632;11.962;2023-04-30T06:59:57;101224.41;;;18.95;38.03
13011;BME280;6786;57.632;11.962;2023-04-30T07:02:26;101233.19;;;18.97;38.14
13011;BME280;6786;57.632;11.962;2023-04-30T07:04:54;101237.69;;;18.96;38.14
13011;BME280;6786;57.632;11.962;2023-04-30T07:07:22;101231.47;;;18.96;38.17
13011;BME280;6786;57.632;11.962;2023-04-30T07:09:52;101231.47;;;18.96;38.00
13011;BME280;6786;57.632;11.962;2023-04-30T07:12:21;101231.47;;;18.96;38.02
13011;BME280;6786;57.632;11.962;2023-04-30T07:14:49;101216.00;;;18.88;37.97
13011;BME280;6786;57.632;11.962;2023-04-30T07:17:17;101234.16;;;18.96;38.14
13011;BME280;6786;57.632;11.962;2023-04-30T07:19:45;101230.25;;;18.89;38.06
13011;BME280;6786;57.632;11.962;2023-04-30T07:22:13;101252.91;;;18.96;38.13
13011;BME280;6786;57.632;11.962;2023-04-30T07:24:41;101252.91;;;18.96;38.05
13011;BME280;6786;57.632;11.962;2023-04-30T07:27:10;101259.13;;;18.96;37.96
13011;BME280;6786;57.632;11.962;2023-04-30T07:29:38;101252.91;;;18.96;38.02
13011;BME280;6786;57.632;11.962;2023-04-30T07:32:07;101261.78;;;18.96;38.11
13011;BME280;6786;57.632;11.962;2023-04-30T07:34:35;101259.97;;;18.97;38.06
13011;BME280;6786;57.632;11.962;2023-04-30T07:37:03;101270.69;;;18.97;37.98
13011;BME280;6786;57.632;11.962;2023-04-30T07:39:32;101269.84;;;18.96;37.95
13011;BME280;6786;57.632;11.962;2023-04-30T07:42:00;101272.63;;;18.95;38.10
13011;BME280;6786;57.632;11.962;2023-04-30T07:44:30;101277.00;;;18.96;38.05
13011;BME280;6786;57.632;11.962;2023-04-30T07:46:59;101273.63;;;18.94;37.99
13011;BME280;6786;57.632;11.962;2023-04-30T07:49:27;101278.84;;;18.95;38.14
13011;BME280;6786;57.632;11.962;2023-04-30T07:51:55;101276.28;;;18.94;37.98
13011;BME280;6786;57.632;11.962;2023-04-30T07:54:23;101272.63;;;18.95;37.92
13011;BME280;6786;57.632;11.962;2023-04-30T07:56:52;101286.25;;;18.92;38.04
13011;BME280;6786;57.632;11.962;2023-04-30T07:59:21;101284.34;;;18.94;37.94
13011;BME280;6786;57.632;11.962;2023-04-30T08:01:51;101292.38;;;18.94;38.06
13011;BME280;6786;57.632;11.962;2023-04-30T08:04:19;101291.38;;;18.95;38.03
13011;BME280;6786;57.632;11.962;2023-04-30T08:06:47;101288.69;;;18.95;38.03
13011;BME280;6786;57.632;11.962;2023-04-30T08:09:16;101285.03;;;18.96;37.93
13011;BME280;6786;57.632;11.962;2023-04-30T08:11:44;101293.94;;;18.96;37.89
13011;BME280;6786;57.632;11.962;2023-04-30T08:14:12;101301.13;;;18.96;38.08
13011;BME280;6786;57.632;11.962;2023-04-30T08:16:40;101297.47;;;18.97;37.56
13011;BME280;6786;57.632;11.962;2023-04-30T08:19:09;101288.19;;;18.90;38.08
13011;BME280;6786;57.632;11.962;2023-04-30T08:21:38;101318.06;;;18.96;37.92
13011;BME280;6786;57.632;11.962;2023-04-30T08:24:06;101306.47;;;18.96;37.88
13011;BME280;6786;57.632;11.962;2023-04-30T08:26:34;101315.50;;;18.95;37.87
13011;BME280;6786;57.632;11.962;2023-04-30T08:29:02;101307.56;;;18.93;37.88
13011;BME280;6786;57.632;11.962;2023-04-30T08:31:30;101315.50;;;18.95;37.92
13011;BME280;6786;57.632;11.962;2023-04-30T08:33:58;101306.47;;;18.96;37.89
13011;BME280;6786;57.632;11.962;2023-04-30T08:36:28;101306.47;;;18.96;37.85
13011;BME280;6786;57.632;11.962;2023-04-30T08:38:56;101315.50;;;18.95;37.97
13011;BME280;6786;57.632;11.962;2023-04-30T08:41:25;101323.41;;;18.96;37.80
13011;BME280;6786;57.632;11.962;2023-04-30T08:44:00;101322.53;;;18.96;37.83
13011;BME280;6786;57.632;11.962;2023-04-30T08:46:34;101327.91;;;18.96;37.86
13011;BME280;6786;57.632;11.962;2023-04-30T08:49:03;101327.91;;;18.96;37.87
13011;BME280;6786;57.632;11.962;2023-04-30T08:51:33;101324.28;;;18.97;37.92
13011;BME280;6786;57.632;11.962;2023-04-30T08:54:02;101338.63;;;18.96;37.78
13011;BME280;6786;57.632;11.962;2023-04-30T08:56:30;101326.69;;;18.89;37.83
13011;BME280;6786;57.632;11.962;2023-04-30T08:58:59;101361.78;;;18.97;37.82
13011;BME280;6786;57.632;11.962;2023-04-30T09:01:28;101343.03;;;18.97;37.87
13011;BME280;6786;57.632;11.962;2023-04-30T09:03:56;101351.06;;;18.97;37.88
13011;BME280;6786;57.632;11.962;2023-04-30T09:06:25;101356.41;;;18.97;37.84
13011;BME280;6786;57.632;11.962;2023-04-30T09:08:55;101356.41;;;18.97;37.78
13011;BME280;6786;57.632;11.962;2023-04-30T09:11:24;101333.72;;;18.90;37.75
13011;BME280;6786;57.632;11.962;2023-04-30T09:13:55;101357.38;;;18.96;37.91
13011;BME280;6786;57.632;11.962;2023-04-30T09:16:24;101357.38;;;18.96;37.80
13011;BME280;6786;57.632;11.962;2023-04-30T09:18:53;101349.34;;;18.96;37.89
13011;BME280;6786;57.632;11.962;2023-04-30T09:21:32;101365.41;;;18.96;37.66
13011;BME280;6786;57.632;11.962;2023-04-30T09:24:03;101356.41;;;18.97;37.84
13011;BME280;6786;57.632;11.962;2023-04-30T09:26:33;101355.66;;;18.95;37.93
13011;BME280;6786;57.632;11.962;2023-04-30T09:29:01;101362.72;;;18.96;37.77
13011;BME280;6786;57.632;11.962;2023-04-30T09:31:34;101373.44;;;18.96;37.89
13011;BME280;6786;57.632;11.962;2023-04-30T09:34:02;101371.75;;;18.95;37.84
13011;BME280;6786;57.632;11.962;2023-04-30T09:36:31;101381.47;;;18.96;37.92
13011;BME280;6786;57.632;11.962;2023-04-30T09:39:06;101365.41;;;18.96;37.45
13011;BME280;6786;57.632;11.962;2023-04-30T09:41:40;101361.03;;;18.95;37.73
13011;BME280;6786;57.632;11.962;2023-04-30T09:44:25;101367.25;;;18.95;37.36
13011;BME280;6786;57.632;11.962;2023-04-30T09:46:54;101380.66;;;18.95;37.75
13011;BME280;6786;57.632;11.962;2023-04-30T09:49:24;101382.34;;;18.96;37.68
13011;BME280;6786;57.632;11.962;2023-04-30T09:51:53;101381.47;;;18.96;37.72
13011;BME280;6786;57.632;11.962;2023-04-30T09:54:25;101370.75;;;18.96;37.78
13011;BME280;6786;57.632;11.962;2023-04-30T09:56:56;101370.75;;;18.96;37.70
13011;BME280;6786;57.632;11.962;2023-04-30T09:59:28;101377.84;;;18.97;37.64
13011;BME280;6786;57.632;11.962;2023-04-30T10:01:58;101375.28;;;18.95;37.72
13011;BME280;6786;57.632;11.962;2023-04-30T10:04:28;101386.84;;;18.96;37.82
13011;BME280;6786;57.632;11.962;2023-04-30T10:06:58;101381.47;;;18.96;37.67
13011;BME280;6786;57.632;11.962;2023-04-30T10:09:47;101376.34;;;18.93;37.60
13011;BME280;6786;57.632;11.962;2023-04-30T10:12:23;101382.47;;;18.95;37.71
13011;BME280;6786;57.632;11.962;2023-04-30T10:14:56;101377.09;;;18.95;37.60
13011;BME280;6786;57.632;11.962;2023-04-30T10:17:29;101386.84;;;18.96;37.71
13011;BME280;6786;57.632;11.962;2023-04-30T10:20:03;101376.13;;;18.96;38.03
13011;BME280;6786;57.632;11.962;2023-04-30T10:22:33;101386.84;;;18.96;37.75
13011;BME280;6786;57.632;11.962;2023-04-30T10:25:04;101394.16;;;18.94;37.75
13011;BME280;6786;57.632;11.962;2023-04-30T10:27:37;101386.84;;;18.96;37.62
13011;BME280;6786;57.632;11.962;2023-04-30T10:30:09;101396.72;;;18.95;37.70
13011;BME280;6786;57.632;11.962;2023-04-30T10:32:43;101402.91;;;18.96;37.71
13011;BME280;6786;57.632;11.962;2023-04-30T10:35:16;101389.50;;;18.96;37.78
13011;BME280;6786;57.632;11.962;2023-04-30T10:37:50;101401.22;;;18.95;37.72
13011;BME280;6786;57.632;11.962;2023-04-30T10:40:21;101386.84;;;18.96;37.72
13011;BME280;6786;57.632;11.962;2023-04-30T10:42:52;101392.19;;;18.96;37.77
13011;BME280;6786;57.632;11.962;2023-04-30T10:45:33;101385.13;;;18.95;37.48
13011;BME280;6786;57.632;11.962;2023-04-30T10:48:02;101401.22;;;18.95;37.89
13011;BME280;6786;57.632;11.962;2023-04-30T10:50:31;101402.91;;;18.96;37.78
13011;BME280;6786;57.632;11.962;2023-04-30T10:53:02;101402.91;;;18.96;37.67
13011;BME280;6786;57.632;11.962;2023-04-30T10:55:32;101397.53;;;18.96;37.76
13011;BME280;6786;57.632;11.962;2023-04-30T10:58:22;101404.63;;;18.97;37.37
13011;BME280;6786;57.632;11.962;2023-04-30T11:00:59;101392.19;;;18.96;37.49
13011;BME280;6786;57.632;11.962;2023-04-30T11:03:28;101408.25;;;18.96;37.62
13011;BME280;6786;57.632;11.962;2023-04-30T11:05:57;101409.13;;;18.96;37.78
13011;BME280;6786;57.632;11.962;2023-04-30T11:08:33;101389.50;;;18.85;37.69
13011;BME280;6786;57.632;11.962;2023-04-30T11:11:03;101375.94;;;18.75;37.73
13011;BME280;6786;57.632;11.962;2023-04-30T11:13:39;101410.00;;;18.97;37.58
13011;BME280;6786;57.632;11.962;2023-04-30T11:16:08;101414.50;;;18.96;37.61
13011;BME280;6786;57.632;11.962;2023-04-30T11:18:41;101412.69;;;18.97;37.67
13011;BME280;6786;57.632;11.962;2023-04-30T11:21:09;101407.31;;;18.97;37.71
13011;BME280;6786;57.632;11.962;2023-04-30T11:23:40;101418.97;;;18.96;37.71
13011;BME280;6786;57.632;11.962;2023-04-30T11:26:11;101415.34;;;18.97;37.72
13011;BME280;6786;57.632;11.962;2023-04-30T11:28:49;101410.00;;;18.97;37.66
13011;BME280;6786;57.632;11.962;2023-04-30T11:31:18;101410.00;;;18.97;37.65
13011;BME280;6786;57.632;11.962;2023-04-30T11:33:46;101404.75;;;18.95;37.71
13011;BME280;6786;57.632;11.962;2023-04-30T11:36:16;101402.06;;;18.95;37.68
13011;BME280;6786;57.632;11.962;2023-04-30T11:38:44;101428.88;;;18.95;37.78
13011;BME280;6786;57.632;11.962;2023-04-30T11:41:13;101411.94;;;18.95;37.69
13011;BME280;6786;57.632;11.962;2023-04-30T11:43:41;101415.47;;;18.95;37.66
13011;BME280;6786;57.632;11.962;2023-04-30T11:46:11;101417.28;;;18.95;37.75
13011;BME280;6786;57.632;11.962;2023-04-30T11:48:41;101417.28;;;18.95;37.70
13011;BME280;6786;57.632;11.962;2023-04-30T11:51:14;101413.84;;;18.93;37.80
13011;BME280;6786;57.632;11.962;2023-04-30T11:53:44;101409.25;;;18.95;37.76
13011;BME280;6786;57.632;11.962;2023-04-30T11:56:17;101400.34;;;18.94;37.67
13011;BME280;6786;57.632;11.962;2023-04-30T11:58:46;101393.41;;;18.92;37.67
13011;BME280;6786;57.632;11.962;2023-04-30T12:01:15;101418.97;;;18.96;37.70
13011;BME280;6786;57.632;11.962;2023-04-30T12:03:45;101408.25;;;18.96;37.71
13011;BME280;6786;57.632;11.962;2023-04-30T12:06:20;101408.25;;;18.96;37.56
13011;BME280;6786;57.632;11.962;2023-04-30T12:08:52;101414.50;;;18.96;37.73
13011;BME280;6786;57.632;11.962;2023-04-30T12:11:23;101415.34;;;18.97;37.74
13011;BME280;6786;57.632;11.962;2023-04-30T12:13:53;101418.97;;;18.96;37.77
13011;BME280;6786;57.632;11.962;2023-04-30T12:16:23;101415.59;;;18.94;37.60
13011;BME280;6786;57.632;11.962;2023-04-30T12:18:51;101429.69;;;18.96;37.63
13011;BME280;6786;57.632;11.962;2023-04-30T12:21:20;101416.31;;;18.96;37.63
13011;BME280;6786;57.632;11.962;2023-04-30T12:23:48;101424.34;;;18.96;37.66
13011;BME280;6786;57.632;11.962;2023-04-30T12:26:16;101428.88;;;18.95;37.65
13011;BME280;6786;57.632;11.962;2023-04-30T12:28:47;101418.63;;;18.89;37.77
13011;BME280;6786;57.632;11.962;2023-04-30T12:31:16;101429.69;;;18.96;37.64
13011;BME280;6786;57.632;11.962;2023-04-30T12:33:53;101431.44;;;18.97;37.45
13011;BME280;6786;57.632;11.962;2023-04-30T12:36:28;101427.00;;;18.96;37.53
13011;BME280;6786;57.632;11.962;2023-04-30T12:39:09;101429.69;;;18.96;37.53
13011;BME280;6786;57.632;11.962;2023-04-30T12:41:40;101430.56;;;18.96;37.66
13011;BME280;6786;57.632;11.962;2023-04-30T12:44:18;101427.00;;;18.96;37.46
13011;BME280;6786;57.632;11.962;2023-04-30T12:46:47;101431.44;;;18.97;37.74
13011;BME280;6786;57.632;11.962;2023-04-30T12:49:22;101429.69;;;18.96;37.55
13011;BME280;6786;57.632;11.962;2023-04-30T12:51:56;101430.56;;;18.96;37.78
13011;BME280;6786;57.632;11.962;2023-04-30T12:54:26;101445.78;;;18.96;37.66
13011;BME280;6786;57.632;11.962;2023-04-30T12:56:58;101445.78;;;18.96;37.43
13011;BME280;6786;57.632;11.962;2023-04-30T12:59:29;101451.13;;;18.96;37.57
13011;BME280;6786;57.632;11.962;2023-04-30T13:02:05;101440.66;;;18.93;37.57
13011;BME280;6786;57.632;11.962;2023-04-30T13:04:34;101451.13;;;18.96;37.65